Time;durP1;ratioP1;P1;durP2;ratioP2;P2;SDS_P1;SDS_P2;PMS_P1;PMS_P2;Temp;Humidity;BMP_temperature;BMP_pressure;BME280_temperature;BME280_humidity;BME280_pressure;Samples;Min_cycle;Max_cycle;Signal;HPM_P1;HPM_P2
2021/05/02 00:00:46;;;;;;;45.33;26.90;;;17.50;80.40;;;;;;4953125;28;96792;-53
2021/05/02 00:03:16;;;;;;;40.45;24.75;;;17.50;80.50;;;;;;4979394;28;95462;-53
2021/05/02 00:05:47;;;;;;;41.28;26.08;;;17.60;80.70;;;;;;4982188;28;95828;-50
2021/05/02 00:08:17;;;;;;;36.07;23.77;;;17.50;80.60;;;;;;4980680;28;95846;-51
2021/05/02 00:10:47;;;;;;;40.25;24.23;;;17.60;80.80;;;;;;4975720;28;95304;-53
2021/05/02 00:13:16;;;;;;;35.80;24.67;;;17.60;80.70;;;;;;4976900;28;95672;-55
2021/05/02 00:15:46;;;;;;;34.92;23.40;;;17.60;80.80;;;;;;4984532;28;96300;-56
2021/05/02 00:18:21;;;;;;;35.97;21.93;;;17.60;80.80;;;;;;4988420;28;103425;-55
2021/05/02 00:20:53;;;;;;;38.17;22.98;;;17.70;80.80;;;;;;4972097;28;95477;-51
2021/05/02 00:23:25;;;;;;;32.25;20.27;;;17.70;80.80;;;;;;4967895;28;102871;-53
2021/05/02 00:25:57;;;;;;;31.08;20.67;;;17.70;80.70;;;;;;4976329;28;95196;-53
2021/05/02 00:28:33;;;;;;;30.80;20.48;;;17.70;80.60;;;;;;4996554;28;96598;-52
2021/05/02 00:31:09;;;;;;;31.92;20.05;;;17.60;80.50;;;;;;4971923;28;95870;-54
2021/05/02 00:33:40;;;;;;;29.48;20.10;;;17.70;80.30;;;;;;4969835;28;95749;-55
2021/05/02 00:36:11;;;;;;;32.33;20.75;;;17.70;80.20;;;;;;4987107;28;96205;-55
2021/05/02 00:38:43;;;;;;;30.23;19.92;;;17.70;80.30;;;;;;4977330;28;95853;-55
2021/05/02 00:41:21;;;;;;;34.78;19.48;;;17.70;80.20;;;;;;4976178;28;95708;-54
2021/05/02 00:44:02;;;;;;;29.63;19.52;;;17.80;80.20;;;;;;4980999;28;95263;-52
2021/05/02 00:46:37;;;;;;;38.35;20.40;;;17.80;80.00;;;;;;4976110;28;95611;-54
2021/05/02 00:49:16;;;;;;;31.80;18.95;;;17.80;80.00;;;;;;4974164;28;96054;-53
2021/05/02 00:51:58;;;;;;;30.48;17.98;;;17.80;79.90;;;;;;4976918;28;95843;-52
2021/05/02 00:54:43;;;;;;;28.90;18.92;;;17.90;79.80;;;;;;4971784;28;95703;-53
2021/05/02 00:57:23;;;;;;;27.60;17.98;;;17.90;79.60;;;;;;4977478;28;95382;-54
2021/05/02 01:00:07;;;;;;;32.33;18.02;;;17.90;79.50;;;;;;4979912;28;95963;-53
2021/05/02 01:02:38;;;;;;;32.42;18.85;;;17.90;79.60;;;;;;4967673;28;96001;-51
2021/05/02 01:05:12;;;;;;;30.77;18.42;;;17.90;79.50;;;;;;4970435;28;95762;-52
2021/05/02 01:07:44;;;;;;;30.85;19.55;;;18.00;79.40;;;;;;4990744;28;95986;-53
2021/05/02 01:10:19;;;;;;;24.60;17.67;;;18.00;79.90;;;;;;4972780;28;95830;-55
2021/05/02 01:12:51;;;;;;;26.33;17.13;;;18.00;79.10;;;;;;4971627;28;95364;-50
2021/05/02 01:15:33;;;;;;;24.88;16.25;;;18.10;79.00;;;;;;4983780;28;95903;-53
2021/05/02 01:18:21;;;;;;;28.48;17.80;;;18.10;78.90;;;;;;4970215;28;95797;-56
2021/05/02 01:20:51;;;;;;;29.40;17.77;;;18.10;78.80;;;;;;4968805;28;95909;-52
2021/05/02 01:23:30;;;;;;;22.30;16.73;;;18.10;78.80;;;;;;4969451;28;96169;-51
2021/05/02 01:26:05;;;;;;;28.95;15.02;;;18.10;78.90;;;;;;4973073;28;95766;-50
2021/05/02 01:28:37;;;;;;;26.13;16.55;;;18.10;79.50;;;;;;4971666;28;95238;-50
2021/05/02 01:31:08;;;;;;;33.10;16.75;;;18.10;78.80;;;;;;4974461;28;103289;-51
2021/05/02 01:33:40;;;;;;;32.53;19.23;;;18.10;78.90;;;;;;4975799;28;96002;-53
2021/05/02 01:36:10;;;;;;;21.45;15.50;;;18.10;79.10;;;;;;4958092;28;95668;-56
2021/05/02 01:38:42;;;;;;;24.10;16.58;;;18.10;79.10;;;;;;4970529;28;95207;-52
2021/05/02 01:41:12;;;;;;;24.45;16.02;;;18.10;79.10;;;;;;4968414;28;95826;-52
2021/05/02 01:43:46;;;;;;;26.88;16.08;;;18.20;79.20;;;;;;4974344;28;95865;-52
2021/05/02 01:46:22;;;;;;;22.27;15.40;;;18.20;79.10;;;;;;4961139;28;96785;-53
2021/05/02 01:48:52;;;;;;;22.98;15.13;;;18.20;79.00;;;;;;4971699;28;95667;-58
2021/05/02 01:51:22;;;;;;;25.08;15.18;;;18.30;79.00;;;;;;4987921;28;96648;-57
2021/05/02 01:53:52;;;;;;;20.73;13.70;;;18.30;78.90;;;;;;4953186;28;95877;-56
2021/05/02 01:56:22;;;;;;;27.52;15.50;;;18.30;78.90;;;;;;4968323;28;96605;-57
2021/05/02 01:58:52;;;;;;;22.00;14.57;;;18.40;78.80;;;;;;4985481;28;95409;-53
2021/05/02 02:01:23;;;;;;;17.85;14.35;;;18.40;78.80;;;;;;4972705;28;95973;-57
2021/05/02 02:03:55;;;;;;;;;;;18.40;78.70;;;;;;4970855;28;95708;-53
2021/05/02 02:06:27;;;;;;;26.33;15.93;;;18.50;78.50;;;;;;4972853;28;95726;-56
2021/05/02 02:08:59;;;;;;;23.35;14.75;;;18.50;78.40;;;;;;4974924;28;95692;-55
2021/05/02 02:11:32;;;;;;;23.02;14.48;;;18.60;78.50;;;;;;4989486;28;95871;-57
2021/05/02 02:14:02;;;;;;;22.63;14.82;;;18.60;78.30;;;;;;4968511;28;95788;-56
2021/05/02 02:16:34;;;;;;;24.88;14.48;;;18.70;78.20;;;;;;4968908;28;95673;-56
2021/05/02 02:19:04;;;;;;;23.45;14.70;;;18.70;78.20;;;;;;4985337;28;97847;-50
2021/05/02 02:21:37;;;;;;;23.02;14.52;;;18.70;78.70;;;;;;4988922;28;96780;-53
2021/05/02 02:24:11;;;;;;;19.98;14.30;;;18.80;78.10;;;;;;4972218;28;98521;-51
2021/05/02 02:26:53;;;;;;;22.73;13.13;;;18.80;77.90;;;;;;4973805;28;95508;-50
2021/05/02 02:29:25;;;;;;;18.92;12.75;;;18.90;77.90;;;;;;4967437;28;96106;-52
2021/05/02 02:31:58;;;;;;;19.63;12.10;;;18.90;77.80;;;;;;4967186;28;96608;-50
2021/05/02 02:34:33;;;;;;;19.85;12.27;;;18.90;77.80;;;;;;4987110;28;95706;-55
2021/05/02 02:37:03;;;;;;;21.08;14.15;;;19.00;77.60;;;;;;4975342;28;95298;-55
2021/05/02 02:39:34;;;;;;;22.40;14.07;;;19.00;77.60;;;;;;4973212;28;96021;-52
2021/05/02 02:42:08;;;;;;;18.38;12.50;;;19.00;77.60;;;;;;4970471;28;95847;-53
2021/05/02 02:44:40;;;;;;;19.00;12.35;;;19.10;77.60;;;;;;4968602;28;95697;-50
2021/05/02 02:47:13;;;;;;;21.77;13.27;;;19.10;77.50;;;;;;4965120;28;95850;-51
2021/05/02 02:49:49;;;;;;;18.45;12.30;;;19.20;77.50;;;;;;4975305;28;95821;-58
2021/05/02 02:52:24;;;;;;;20.27;13.07;;;19.20;77.40;;;;;;4969737;28;96418;-53
2021/05/02 02:55:04;;;;;;;20.42;12.40;;;19.20;77.30;;;;;;4973694;28;95722;-57
2021/05/02 02:57:44;;;;;;;17.58;12.15;;;19.20;77.20;;;;;;4989796;28;95442;-49
2021/05/02 03:00:14;;;;;;;21.65;12.88;;;19.30;77.20;;;;;;4980747;28;96072;-56
2021/05/02 03:02:50;;;;;;;17.58;11.25;;;19.30;77.10;;;;;;4971060;28;96566;-53
2021/05/02 03:05:24;;;;;;;15.73;11.43;;;19.30;77.10;;;;;;4979860;28;95925;-53
2021/05/02 03:07:56;;;;;;;16.13;10.75;;;19.40;77.10;;;;;;4971326;28;95218;-51
2021/05/02 03:10:26;;;;;;;;;;;19.30;77.00;;;;;;4968951;28;95133;-58
2021/05/02 03:12:57;;;;;;;14.77;10.32;;;19.40;77.00;;;;;;4972158;28;96454;-56
2021/05/02 03:15:29;;;;;;;15.43;11.32;;;19.40;76.90;;;;;;4966003;28;95937;-52
2021/05/02 03:18:03;;;;;;;17.00;10.80;;;19.40;76.90;;;;;;4983661;28;95844;-51
2021/05/02 03:20:38;;;;;;;15.10;10.90;;;19.40;76.90;;;;;;4966011;28;95856;-56
2021/05/02 03:23:24;;;;;;;15.48;10.38;;;19.40;76.80;;;;;;4969844;28;95851;-53
2021/05/02 03:25:56;;;;;;;16.35;11.07;;;19.40;76.70;;;;;;4972624;28;95954;-53
2021/05/02 03:28:53;;;;;;;20.40;12.35;;;19.50;76.70;;;;;;4970802;28;95627;-56
2021/05/02 03:31:31;;;;;;;14.35;10.07;;;19.50;76.80;;;;;;4975921;28;95706;-55
2021/05/02 03:34:06;;;;;;;18.08;11.25;;;19.40;76.70;;;;;;4970372;28;95934;-51
2021/05/02 03:36:57;;;;;;;15.77;10.88;;;19.50;76.80;;;;;;4969810;28;95517;-56
2021/05/02 03:39:28;;;;;;;14.30;10.50;;;19.50;76.80;;;;;;4968075;28;95800;-57
2021/05/02 03:42:02;;;;;;;14.82;10.80;;;19.50;76.70;;;;;;4969491;28;95880;-50
2021/05/02 03:44:31;;;;;;;18.10;11.73;;;19.50;76.70;;;;;;4975019;28;95949;-57
2021/05/02 03:47:03;;;;;;;15.27;10.30;;;19.50;76.70;;;;;;4967885;28;95942;-51
2021/05/02 03:49:35;;;;;;;18.35;11.45;;;19.50;76.70;;;;;;4974276;28;95250;-51
2021/05/02 03:52:04;;;;;;;14.55;9.93;;;19.50;76.80;;;;;;4966443;28;95914;-56
2021/05/02 03:54:34;;;;;;;14.90;10.75;;;19.60;76.70;;;;;;4968075;28;96461;-51
2021/05/02 03:57:04;;;;;;;15.70;9.95;;;19.60;76.70;;;;;;4973353;28;95837;-54
2021/05/02 03:59:35;;;;;;;16.38;11.98;;;19.60;76.80;;;;;;4969706;28;95428;-52
2021/05/02 04:02:06;;;;;;;;;;;19.60;76.80;;;;;;4972325;28;95293;-57
2021/05/02 04:04:38;;;;;;;13.38;10.07;;;19.60;76.80;;;;;;4979211;28;95815;-53
2021/05/02 04:07:10;;;;;;;15.65;11.32;;;19.60;76.80;;;;;;4957255;28;97346;-54
2021/05/02 04:09:42;;;;;;;14.50;10.85;;;19.60;76.70;;;;;;4977719;28;95866;-56
2021/05/02 04:12:12;;;;;;;15.75;9.68;;;19.60;76.70;;;;;;4966871;28;95633;-57
2021/05/02 04:14:43;;;;;;;11.65;9.70;;;19.60;76.80;;;;;;4969423;28;96302;-57
2021/05/02 04:17:15;;;;;;;14.00;9.57;;;19.60;76.70;;;;;;4966960;28;95780;-55
2021/05/02 04:19:51;;;;;;;13.43;10.30;;;19.60;76.70;;;;;;4968939;28;95368;-55
2021/05/02 04:22:22;;;;;;;12.55;10.05;;;19.70;76.80;;;;;;4969295;28;95927;-52
2021/05/02 04:24:52;;;;;;;;;;;19.70;76.80;;;;;;4968942;28;96775;-50
2021/05/02 04:27:23;;;;;;;16.33;10.13;;;19.60;76.70;;;;;;4967493;28;96527;-55
2021/05/02 04:29:56;;;;;;;13.35;9.55;;;19.70;76.80;;;;;;4968992;28;95237;-56
2021/05/02 04:32:28;;;;;;;12.65;10.27;;;19.70;76.80;;;;;;4975918;28;97861;-52
2021/05/02 04:34:58;;;;;;;15.85;10.55;;;19.70;76.70;;;;;;4967298;28;96419;-52
2021/05/02 04:37:29;;;;;;;15.13;9.98;;;19.70;76.70;;;;;;4952472;28;96596;-55
2021/05/02 04:40:00;;;;;;;12.45;9.30;;;19.70;76.80;;;;;;4969669;28;95812;-53
2021/05/02 04:42:30;;;;;;;13.65;10.25;;;19.70;76.70;;;;;;4969171;28;95653;-57
2021/05/02 04:45:01;;;;;;;12.50;9.47;;;19.70;76.70;;;;;;4968321;28;95854;-56
2021/05/02 04:47:31;;;;;;;12.05;9.55;;;19.70;76.80;;;;;;4967263;28;95257;-51
2021/05/02 04:50:04;;;;;;;14.07;9.98;;;19.70;76.70;;;;;;4971132;28;95209;-52
2021/05/02 04:52:34;;;;;;;12.60;9.98;;;19.70;76.70;;;;;;4985597;28;96170;-52
2021/05/02 04:55:06;;;;;;;13.90;9.25;;;19.80;76.80;;;;;;4976695;28;95859;-52
2021/05/02 04:57:35;;;;;;;12.07;9.00;;;19.80;76.80;;;;;;4974436;28;95844;-53
2021/05/02 05:00:07;;;;;;;11.30;9.35;;;19.70;76.80;;;;;;4967197;28;95591;-52
2021/05/02 05:02:37;;;;;;;10.45;8.82;;;19.70;76.70;;;;;;4969513;28;95650;-56
2021/05/02 05:05:09;;;;;;;12.73;9.82;;;19.80;76.80;;;;;;4973379;28;95840;-52
2021/05/02 05:07:39;;;;;;;;;;;19.80;76.80;;;;;;4973348;28;95626;-52
2021/05/02 05:10:10;;;;;;;12.07;9.00;;;19.80;76.70;;;;;;4973728;28;95810;-53
2021/05/02 05:12:41;;;;;;;11.38;8.65;;;19.80;76.70;;;;;;4971313;28;95557;-52
2021/05/02 05:15:12;;;;;;;13.10;9.50;;;19.90;76.80;;;;;;4967786;28;96540;-51
2021/05/02 05:17:43;;;;;;;13.30;9.05;;;19.80;76.70;;;;;;4966579;28;101945;-50
2021/05/02 05:20:14;;;;;;;13.00;9.82;;;19.80;76.70;;;;;;4971615;28;95998;-50
2021/05/02 05:22:45;;;;;;;;;;;19.90;76.70;;;;;;4973656;28;95442;-51
2021/05/02 05:25:15;;;;;;;12.33;8.90;;;19.90;76.60;;;;;;4980432;28;95862;-56
2021/05/02 05:27:46;;;;;;;12.57;8.82;;;19.90;76.60;;;;;;4970251;28;95593;-56
2021/05/02 05:30:17;;;;;;;11.75;8.35;;;20.00;76.70;;;;;;4969530;28;95592;-56
2021/05/02 05:32:46;;;;;;;13.48;8.70;;;19.90;76.60;;;;;;4970312;28;95385;-56
2021/05/02 05:35:16;;;;;;;14.15;8.75;;;20.00;76.60;;;;;;4971696;28;95951;-50
2021/05/02 05:37:45;;;;;;;9.00;7.18;;;20.00;76.60;;;;;;4973803;28;95927;-53
2021/05/02 05:40:15;;;;;;;11.65;8.73;;;20.00;76.60;;;;;;4975834;28;95704;-51
2021/05/02 05:42:46;;;;;;;13.38;8.65;;;20.00;76.60;;;;;;4973212;28;95669;-52
2021/05/02 05:45:19;;;;;;;14.75;8.45;;;20.00;76.50;;;;;;4966242;28;95910;-51
2021/05/02 05:47:54;;;;;;;9.48;8.02;;;20.10;76.60;;;;;;4979790;28;102708;-51
2021/05/02 05:50:25;;;;;;;9.25;7.95;;;20.10;76.60;;;;;;4968467;28;95810;-57
2021/05/02 05:52:55;;;;;;;10.30;8.35;;;20.10;76.60;;;;;;4970863;28;95732;-50
2021/05/02 05:55:24;;;;;;;11.05;8.13;;;20.10;76.40;;;;;;4970945;28;96023;-57
2021/05/02 05:57:54;;;;;;;11.25;8.65;;;20.10;76.50;;;;;;4971562;28;95844;-53
2021/05/02 06:00:24;;;;;;;12.23;8.75;;;20.10;76.50;;;;;;4949514;28;95697;-53
2021/05/02 06:02:54;;;;;;;12.18;8.10;;;20.10;76.60;;;;;;4971414;28;95744;-50
2021/05/02 06:05:24;;;;;;;9.65;7.50;;;20.10;76.40;;;;;;4971773;28;95908;-50
2021/05/02 06:07:54;;;;;;;12.52;8.88;;;20.20;76.50;;;;;;4987407;28;95605;-54
2021/05/02 06:10:25;;;;;;;9.37;8.30;;;20.20;76.50;;;;;;4990312;28;95559;-51
2021/05/02 06:12:55;;;;;;;12.70;8.67;;;20.20;76.50;;;;;;4980155;28;95657;-51
2021/05/02 06:15:25;;;;;;;9.90;7.40;;;20.20;76.50;;;;;;4966974;28;96005;-53
2021/05/02 06:17:57;;;;;;;9.18;7.63;;;20.20;76.50;;;;;;4969642;28;95568;-53
2021/05/02 06:20:28;;;;;;;9.18;7.75;;;20.20;76.50;;;;;;4971573;28;95243;-51
2021/05/02 06:22:59;;;;;;;9.63;7.35;;;20.20;76.40;;;;;;4968520;28;95784;-55
2021/05/02 06:25:30;;;;;;;10.30;7.57;;;20.20;76.50;;;;;;5004261;28;98456;-53
2021/05/02 06:28:01;;;;;;;9.07;7.88;;;20.20;76.50;;;;;;4972978;28;97469;-50
2021/05/02 06:30:31;;;;;;;10.40;7.65;;;20.20;76.40;;;;;;4976703;28;95752;-52
2021/05/02 06:33:01;;;;;;;9.05;7.93;;;20.20;76.40;;;;;;4972421;28;95725;-50
2021/05/02 06:35:31;;;;;;;11.17;7.87;;;20.20;76.40;;;;;;4969707;28;95950;-51
2021/05/02 06:38:03;;;;;;;8.23;7.10;;;20.20;76.40;;;;;;4970954;28;98685;-57
2021/05/02 06:40:37;;;;;;;8.95;7.90;;;20.30;76.40;;;;;;4967981;28;97487;-50
2021/05/02 06:43:08;;;;;;;9.07;7.00;;;20.20;76.50;;;;;;4970941;28;95753;-52
2021/05/02 06:45:39;;;;;;;10.02;7.60;;;20.30;76.50;;;;;;4964748;28;102023;-56
2021/05/02 06:48:09;;;;;;;8.95;7.25;;;20.30;76.50;;;;;;4976680;28;96914;-52
2021/05/02 06:50:39;;;;;;;11.38;8.00;;;20.30;76.40;;;;;;4961020;28;95448;-50
2021/05/02 06:53:09;;;;;;;7.20;6.38;;;20.30;76.40;;;;;;4976174;28;95228;-55
2021/05/02 06:55:40;;;;;;;10.80;7.68;;;20.20;76.40;;;;;;4959478;28;95884;-51
2021/05/02 06:58:14;;;;;;;9.68;7.72;;;20.20;76.40;;;;;;4971827;28;95999;-51
2021/05/02 07:00:44;;;;;;;9.00;6.85;;;20.30;76.40;;;;;;4969027;28;96085;-53
2021/05/02 07:03:14;;;;;;;8.90;6.60;;;20.30;76.30;;;;;;4971380;28;95670;-54
2021/05/02 07:05:49;;;;;;;8.02;6.57;;;20.30;76.30;;;;;;4971005;28;100112;-55
2021/05/02 07:08:22;;;;;;;9.90;6.75;;;20.30;76.20;;;;;;4971900;28;96776;-54
2021/05/02 07:10:53;;;;;;;7.28;6.07;;;20.30;76.30;;;;;;4974354;28;95811;-56
2021/05/02 07:13:24;;;;;;;9.32;6.85;;;20.30;76.40;;;;;;4969722;28;95783;-53
2021/05/02 07:15:55;;;;;;;;;;;20.30;76.40;;;;;;4967634;28;95924;-56
2021/05/02 07:18:33;;;;;;;8.90;5.97;;;20.30;76.40;;;;;;4974027;28;95391;-52
2021/05/02 07:21:05;;;;;;;9.02;7.38;;;20.30;76.30;;;;;;4974949;28;95814;-53
2021/05/02 07:23:41;;;;;;;8.35;6.60;;;20.30;76.40;;;;;;4985573;28;95357;-52
2021/05/02 07:26:15;;;;;;;9.57;6.63;;;20.30;76.40;;;;;;4970258;28;96365;-56
2021/05/02 07:28:46;;;;;;;7.70;5.63;;;20.30;76.30;;;;;;4973040;28;95854;-52
2021/05/02 07:31:18;;;;;;;9.20;6.78;;;20.30;76.30;;;;;;4966587;28;95899;-54
2021/05/02 07:33:49;;;;;;;7.05;6.30;;;20.30;76.30;;;;;;4971247;28;95879;-53
2021/05/02 07:36:20;;;;;;;6.70;5.28;;;20.20;76.20;;;;;;4982343;28;96142;-54
2021/05/02 07:38:53;;;;;;;9.35;6.07;;;20.30;76.40;;;;;;4969769;28;95805;-54
2021/05/02 07:41:23;;;;;;;;;;;20.30;76.60;;;;;;4987125;28;95894;-55
2021/05/02 07:43:53;;;;;;;7.57;5.78;;;20.20;77.20;;;;;;4985002;28;95425;-56
2021/05/02 07:46:24;;;;;;;9.98;6.75;;;20.20;76.40;;;;;;4970232;28;95840;-52
2021/05/02 07:48:54;;;;;;;6.75;6.15;;;20.20;76.50;;;;;;4975807;28;95864;-49
2021/05/02 07:51:24;;;;;;;12.27;6.47;;;20.20;76.30;;;;;;4980537;28;95192;-49
2021/05/02 07:53:55;;;;;;;11.25;7.22;;;20.20;76.20;;;;;;4978931;28;95413;-55
2021/05/02 07:56:25;;;;;;;9.65;6.70;;;20.20;76.20;;;;;;4975750;28;95886;-52
2021/05/02 07:58:57;;;;;;;6.70;5.82;;;20.10;76.40;;;;;;5002680;28;97557;-53
2021/05/02 08:01:26;;;;;;;9.37;5.80;;;20.10;76.50;;;;;;4971845;28;95451;-51
2021/05/02 08:03:56;;;;;;;9.90;6.30;;;20.10;76.60;;;;;;4975008;28;95309;-52
2021/05/02 08:06:26;;;;;;;7.15;5.95;;;20.10;76.70;;;;;;4969713;28;96410;-53
2021/05/02 08:08:58;;;;;;;7.93;5.75;;;20.10;77.50;;;;;;4974415;28;95798;-57
2021/05/02 08:11:27;;;;;;;6.27;5.13;;;20.10;76.90;;;;;;4971241;28;95272;-51
2021/05/02 08:13:57;;;;;;;9.52;6.80;;;20.00;76.90;;;;;;4993948;28;95739;-51
2021/05/02 08:16:28;;;;;;;8.75;6.45;;;20.00;77.00;;;;;;4971129;28;95855;-52
2021/05/02 08:19:01;;;;;;;8.40;6.20;;;20.00;77.10;;;;;;4969412;28;98536;-54
2021/05/02 08:21:31;;;;;;;6.13;5.53;;;20.00;77.20;;;;;;4967416;28;95859;-50
2021/05/02 08:24:01;;;;;;;6.47;5.75;;;19.90;77.10;;;;;;4969845;28;95523;-55
2021/05/02 08:26:33;;;;;;;7.35;5.22;;;20.00;77.30;;;;;;4968048;28;95875;-51
2021/05/02 08:29:04;;;;;;;7.95;6.10;;;19.90;77.30;;;;;;4972748;28;95349;-53
2021/05/02 08:31:35;;;;;;;6.43;5.17;;;19.90;77.40;;;;;;4969829;28;95844;-52
2021/05/02 08:34:05;;;;;;;6.65;5.90;;;19.90;77.40;;;;;;4981350;28;95893;-51
2021/05/02 08:36:35;;;;;;;7.05;5.72;;;19.90;77.40;;;;;;4981308;28;95912;-50
2021/05/02 08:39:06;;;;;;;8.20;5.57;;;19.90;76.90;;;;;;4975410;28;95836;-51
2021/05/02 08:41:38;;;;;;;7.68;5.82;;;19.90;76.60;;;;;;4971136;28;95580;-54
2021/05/02 08:44:10;;;;;;;7.07;5.93;;;19.80;76.50;;;;;;4973005;28;95773;-56
2021/05/02 08:46:40;;;;;;;6.57;5.68;;;19.90;76.50;;;;;;4966556;28;96186;-55
2021/05/02 08:49:10;;;;;;;9.18;6.85;;;19.90;76.60;;;;;;4976873;28;95307;-52
2021/05/02 08:51:39;;;;;;;6.97;5.78;;;19.80;76.50;;;;;;4986806;28;95791;-53
2021/05/02 08:54:10;;;;;;;9.40;6.35;;;19.80;76.50;;;;;;4972427;28;95943;-50
2021/05/02 08:56:43;;;;;;;6.47;5.83;;;19.80;76.50;;;;;;4981751;28;96552;-54
2021/05/02 08:59:13;;;;;;;10.00;6.35;;;19.80;76.60;;;;;;4968333;28;95806;-56
2021/05/02 09:01:45;;;;;;;7.70;5.85;;;19.80;76.70;;;;;;4989002;28;95398;-51
2021/05/02 09:04:17;;;;;;;7.43;5.57;;;19.80;76.80;;;;;;4972715;28;95638;-50
2021/05/02 09:06:49;;;;;;;7.90;6.20;;;19.80;76.80;;;;;;4976469;28;96623;-56
2021/05/02 09:09:20;;;;;;;12.20;5.05;;;19.80;76.90;;;;;;4989685;28;97505;-52
2021/05/02 09:11:52;;;;;;;7.68;5.75;;;19.70;76.30;;;;;;4972108;28;95554;-51
2021/05/02 09:14:24;;;;;;;12.20;5.40;;;19.70;75.90;;;;;;4971964;28;95815;-53
2021/05/02 09:16:58;;;;;;;6.65;5.38;;;19.70;75.60;;;;;;4968093;28;97030;-53
2021/05/02 09:19:35;;;;;;;9.15;5.22;;;19.70;75.60;;;;;;4979469;28;96568;-50
2021/05/02 09:22:14;;;;;;;6.45;4.55;;;19.70;75.20;;;;;;4988670;28;95425;-50
2021/05/02 09:25:04;;;;;;;6.30;4.57;;;19.70;75.00;;;;;;4978827;28;95893;-49
2021/05/02 09:27:47;;;;;;;6.80;4.82;;;19.70;75.00;;;;;;4968676;28;96012;-56
2021/05/02 09:30:20;;;;;;;7.85;5.53;;;19.60;74.80;;;;;;4968201;28;95816;-55
2021/05/02 09:32:51;;;;;;;7.13;3.97;;;19.70;74.50;;;;;;4978001;28;95360;-56
2021/05/02 09:35:36;;;;;;;7.00;5.10;;;19.70;74.70;;;;;;4967568;28;97095;-53
2021/05/02 09:38:13;;;;;;;4.88;4.20;;;19.70;76.10;;;;;;4978416;28;96217;-53
2021/05/02 09:40:59;;;;;;;5.88;5.10;;;19.70;76.20;;;;;;4986343;28;95416;-52
2021/05/02 09:43:37;;;;;;;7.53;4.47;;;19.70;76.20;;;;;;4959720;28;96065;-56
2021/05/02 09:49:10;;;;;;;6.93;4.88;;;19.70;76.30;;;;;;4982309;28;96062;-55
2021/05/02 09:51:46;;;;;;;9.30;5.35;;;19.60;76.40;;;;;;4962863;28;95388;-54
2021/05/02 09:54:27;;;;;;;5.72;5.00;;;19.60;76.50;;;;;;4979432;28;95918;-52
2021/05/02 09:57:03;;;;;;;6.10;4.15;;;19.60;76.60;;;;;;4981029;28;95808;-50
2021/05/02 09:59:34;;;;;;;4.97;4.47;;;19.60;76.60;;;;;;4972202;28;96545;-56
2021/05/02 10:02:13;;;;;;;;;;;19.60;76.60;;;;;;4971786;28;96102;-56
2021/05/02 10:04:57;;;;;;;6.63;4.90;;;19.60;76.70;;;;;;4980251;28;97467;-54
2021/05/02 10:07:31;;;;;;;5.10;4.40;;;19.60;76.70;;;;;;4981847;28;98233;-54
2021/05/02 10:10:03;;;;;;;5.35;4.15;;;19.60;76.80;;;;;;4975215;28;102396;-56
2021/05/02 10:12:40;;;;;;;6.20;4.50;;;19.60;76.70;;;;;;4968530;28;96624;-57
2021/05/02 10:15:10;;;;;;;6.68;4.70;;;19.60;76.90;;;;;;4977829;28;95390;-53
2021/05/02 10:17:42;;;;;;;6.25;4.25;;;19.50;76.80;;;;;;4977336;28;95908;-51
2021/05/02 10:20:14;;;;;;;4.35;3.95;;;19.60;76.80;;;;;;4976271;28;96832;-57
2021/05/02 10:22:46;;;;;;;5.63;5.00;;;19.50;76.80;;;;;;4971421;28;97837;-53
2021/05/02 10:25:19;;;;;;;5.30;4.55;;;19.50;76.90;;;;;;4981915;28;95894;-57
2021/05/02 10:27:52;;;;;;;5.47;4.65;;;19.50;77.00;;;;;;4982269;28;95898;-54
2021/05/02 10:30:29;;;;;;;8.07;5.38;;;19.50;77.10;;;;;;4976283;28;95910;-52
2021/05/02 10:33:10;;;;;;;6.35;4.63;;;19.50;77.20;;;;;;4964367;28;103550;-51
2021/05/02 10:35:54;;;;;;;4.68;4.13;;;19.50;77.20;;;;;;4978409;28;95573;-54
2021/05/02 10:38:51;;;;;;;6.60;5.18;;;19.40;77.20;;;;;;4976397;28;95843;-52
2021/05/02 10:41:28;;;;;;;4.53;3.83;;;19.40;77.50;;;;;;4967392;28;96667;-52
2021/05/02 10:44:12;;;;;;;4.97;3.70;;;19.40;78.20;;;;;;4956790;28;96343;-57
2021/05/02 10:46:58;;;;;;;5.20;3.97;;;19.30;77.60;;;;;;4977155;28;95654;-53
2021/05/02 10:49:30;;;;;;;7.10;3.97;;;19.30;77.70;;;;;;4975748;28;95897;-54
2021/05/02 10:52:30;;;;;;;4.90;3.70;;;19.30;77.80;;;;;;4972239;28;100736;-53
2021/05/02 10:55:16;;;;;;;5.90;3.70;;;19.30;77.90;;;;;;4970415;28;95467;-54
2021/05/02 10:57:45;;;;;;;4.82;4.28;;;19.30;78.00;;;;;;4967832;28;95461;-54
2021/05/02 11:00:15;;;;;;;3.80;3.50;;;19.30;78.00;;;;;;4977203;28;95508;-53
2021/05/02 11:02:47;;;;;;;9.40;4.53;;;19.20;78.00;;;;;;4981143;28;96734;-53
2021/05/02 11:05:19;;;;;;;7.95;3.95;;;19.20;78.00;;;;;;4966718;28;95539;-57
2021/05/02 11:07:57;;;;;;;5.10;3.30;;;19.20;78.10;;;;;;4972946;28;95947;-55
2021/05/02 11:10:50;;;;;;;4.55;4.15;;;19.30;78.30;;;;;;4977607;28;95766;-53
2021/05/02 11:13:29;;;;;;;4.03;3.42;;;19.50;78.20;;;;;;4982311;28;96219;-55
2021/05/02 11:16:23;;;;;;;4.82;3.53;;;19.60;78.00;;;;;;4974919;28;96072;-56
2021/05/02 11:18:55;;;;;;;4.55;3.47;;;19.70;77.90;;;;;;4968387;28;95615;-58
2021/05/02 11:21:25;;;;;;;;;;;19.80;77.80;;;;;;4971150;28;95430;-51
2021/05/02 11:24:00;;;;;;;4.43;3.28;;;19.80;77.70;;;;;;4970088;28;95789;-53
2021/05/02 11:27:04;;;;;;;3.28;2.97;;;19.90;77.60;;;;;;4969034;28;97356;-55
2021/05/02 11:32:40;;;;;;;4.78;3.28;;;20.00;77.40;;;;;;4966121;28;99422;-55
2021/05/02 11:35:15;;;;;;;5.38;3.75;;;20.10;77.50;;;;;;4974657;28;96551;-58
2021/05/02 11:37:54;;;;;;;5.07;2.83;;;20.10;77.40;;;;;;4977985;28;95774;-54
2021/05/02 11:40:26;;;;;;;4.05;3.35;;;20.20;77.40;;;;;;4975076;28;98179;-58
2021/05/02 11:43:00;;;;;;;6.20;3.00;;;20.20;77.30;;;;;;4972522;28;96458;-57
2021/05/02 11:45:51;;;;;;;6.32;2.95;;;20.20;77.20;;;;;;4975246;28;96121;-57
2021/05/02 11:48:24;;;;;;;3.72;2.85;;;20.30;77.40;;;;;;4972704;28;95800;-57
2021/05/02 11:50:58;;;;;;;4.35;3.00;;;20.30;77.50;;;;;;4970890;28;95742;-57
2021/05/02 11:53:42;;;;;;;5.32;3.10;;;20.40;77.30;;;;;;4964039;28;96288;-55
2021/05/02 11:56:16;;;;;;;2.92;2.53;;;20.40;77.80;;;;;;4967813;28;96580;-56
2021/05/02 11:58:46;;;;;;;3.22;2.67;;;20.50;77.10;;;;;;4973670;28;95789;-54
2021/05/02 12:01:19;;;;;;;3.38;3.00;;;20.50;77.10;;;;;;4961964;28;95667;-56
2021/05/02 12:03:50;;;;;;;2.83;2.45;;;20.60;77.20;;;;;;4981172;28;95892;-58
2021/05/02 12:06:29;;;;;;;3.53;2.90;;;20.60;77.20;;;;;;4973421;28;95895;-56
2021/05/02 12:09:10;;;;;;;3.15;2.72;;;20.70;77.20;;;;;;4956119;28;95627;-56
2021/05/02 12:11:41;;;;;;;4.00;3.13;;;20.70;77.30;;;;;;4988958;28;95585;-53
2021/05/02 12:14:19;;;;;;;2.60;2.40;;;20.70;77.10;;;;;;4976661;28;95894;-55
2021/05/02 12:16:57;;;;;;;2.75;2.55;;;20.80;77.10;;;;;;4964910;28;96654;-54
2021/05/02 12:19:33;;;;;;;3.15;2.70;;;20.80;77.20;;;;;;4971062;28;95754;-55
2021/05/02 12:22:06;;;;;;;3.17;2.30;;;20.80;77.00;;;;;;4987160;28;96029;-56
2021/05/02 12:24:37;;;;;;;4.90;3.17;;;20.90;77.10;;;;;;4977190;28;95671;-55
2021/05/02 12:27:10;;;;;;;3.22;2.80;;;20.90;77.00;;;;;;4973638;28;96431;-55
2021/05/02 12:29:46;;;;;;;3.72;2.63;;;21.00;76.90;;;;;;4985639;28;99240;-50
2021/05/02 12:32:19;;;;;;;3.10;2.67;;;21.00;76.90;;;;;;4971778;28;96269;-55
2021/05/02 12:34:51;;;;;;;4.05;3.55;;;21.10;76.70;;;;;;4984557;28;95470;-54
2021/05/02 12:37:24;;;;;;;3.00;2.58;;;21.00;76.70;;;;;;4969868;28;95870;-54
2021/05/02 12:39:55;;;;;;;2.60;2.40;;;21.10;76.60;;;;;;4972064;28;95705;-51
2021/05/02 12:42:33;;;;;;;2.38;2.17;;;21.10;76.50;;;;;;4973995;28;95559;-56
2021/05/02 12:45:09;;;;;;;2.67;2.42;;;21.20;76.60;;;;;;4970200;28;95694;-54
2021/05/02 12:47:49;;;;;;;4.95;2.80;;;21.20;76.40;;;;;;4968809;28;95313;-56
2021/05/02 12:50:20;;;;;;;2.75;2.15;;;21.20;76.50;;;;;;4968490;28;95948;-60
2021/05/02 12:52:55;;;;;;;2.90;2.30;;;21.30;76.50;;;;;;4986845;28;95232;-54
2021/05/02 12:55:28;;;;;;;3.88;2.03;;;21.30;76.40;;;;;;4982564;28;95586;-59
2021/05/02 12:58:00;;;;;;;3.45;2.88;;;21.30;74.70;;;;;;4971739;28;95936;-51
2021/05/02 13:00:34;;;;;;;3.38;2.35;;;21.10;72.00;;;;;;4973541;28;96453;-57
2021/05/02 13:03:27;;;;;;;3.20;2.47;;;20.90;73.10;;;;;;4965150;28;96512;-57
2021/05/02 13:06:09;;;;;;;3.55;2.65;;;20.90;73.70;;;;;;4974229;28;98376;-56
2021/05/02 13:08:53;;;;;;;5.65;3.17;;;20.80;73.70;;;;;;4962385;28;96653;-56
2021/05/02 13:11:40;;;;;;;2.63;2.40;;;20.70;74.80;;;;;;4976736;28;96528;-58
2021/05/02 13:14:21;;;;;;;3.30;2.97;;;20.60;74.20;;;;;;4984890;28;96160;-54
2021/05/02 13:16:53;;;;;;;8.50;3.63;;;20.50;74.50;;;;;;4954528;28;96183;-56
2021/05/02 13:19:25;;;;;;;4.13;2.70;;;20.60;74.20;;;;;;4971912;28;95843;-56